Grissom ARB Airport Peru US
ICAO: KGUS
IATA: GUS
Category: Large
Scheduled Services: No

Elevation: 812 ft
TransAlt. 18000 ft.

Airport Communications:
APP:121.05
ATIS:108.45
CLNC DEL:120
DEP:121.05
GND:128.425
PMSV METRO:34.46
PTD:37.22
TWR:133.7

KGUS Zoom In..

Runways:

(A) RW 05 length 12501 ft width 200 ft
ILS 109.50 / hdg 46

(B) RW 23 length 12501 ft width 200 ft
ILS 109.50 / hdg 226

Location; KGUS
Day. 20 / Time. 01.56 Zulu
* Altimeter: 29.89
* Temperature: 23° c. 73.4°f.
* Wind from: 140° Speed 06 kn.
Dewpoint: 18° c.
Visibility: 10 Statute Miles.
Clouds: Scattered 15000 ft.
Clouds: Scattered 17000 ft.
Clouds: Broken 24000 ft.

KGUS 200156Z AUTO 14006KT 10SM SCT150 SCT170 BKN240 23/18 A2989 RMK AO2 SLP120 T02280175 $


Wind From 140°
Speed 06 kn.

 
 
jpsmedia.com for Web Design worldairports.se 2018   terms of use